createdAt,value
2023-03-07T00:00:23.181Z,99219.60
2023-03-07T00:03:49.962Z,99221.97
2023-03-07T00:06:58.927Z,99225.30
2023-03-07T00:10:08.318Z,99224.46
2023-03-07T00:13:16.170Z,99223.39
2023-03-07T00:16:24.872Z,99220.95
2023-03-07T00:19:30.400Z,99217.52
2023-03-07T00:22:38.663Z,99214.20
2023-03-07T00:26:04.090Z,99216.87
2023-03-07T00:29:20.816Z,99211.95
2023-03-07T00:32:29.138Z,99204.80
2023-03-07T00:35:37.062Z,99199.25
2023-03-07T00:38:52.624Z,99188.76
2023-03-07T00:42:00.996Z,99188.45
2023-03-07T00:45:06.877Z,99183.77
2023-03-07T00:48:23.482Z,99183.70
2023-03-07T00:51:40.362Z,99182.19
2023-03-07T00:54:55.967Z,99179.79
2023-03-07T00:58:10.948Z,99177.45
2023-03-07T01:01:19.963Z,99171.55
2023-03-07T01:04:28.403Z,99164.84
2023-03-07T01:07:36.392Z,99160.63
2023-03-07T01:10:45.002Z,99157.59
2023-03-07T01:14:00.638Z,99150.95
2023-03-07T01:17:17.707Z,99147.76
2023-03-07T01:20:26.158Z,99149.92
2023-03-07T01:23:35.847Z,99147.61
2023-03-07T01:26:44.037Z,99147.85
2023-03-07T01:30:00.157Z,99143.77
2023-03-07T01:33:08.782Z,99140.25
2023-03-07T01:36:19.421Z,99141.09
2023-03-07T01:39:45.393Z,99131.46
2023-03-07T01:43:19.405Z,99128.90
2023-03-07T01:46:46.659Z,99125.92
2023-03-07T01:50:13.836Z,99115.72
2023-03-07T01:53:31.981Z,99113.89
2023-03-07T01:56:44.197Z,99108.91
2023-03-07T02:00:14.395Z,99096.77
2023-03-07T02:03:35.694Z,99097.17
2023-03-07T02:06:44.649Z,99092.91
2023-03-07T02:09:54.606Z,99091.65
2023-03-07T02:13:05.705Z,99087.33
2023-03-07T02:16:14.952Z,99082.05
2023-03-07T02:19:31.400Z,99073.64
2023-03-07T02:22:41.784Z,99072.83
2023-03-07T02:25:56.430Z,99072.35
2023-03-07T02:29:04.734Z,99071.95
2023-03-07T02:32:22.038Z,99070.34
2023-03-07T02:35:48.663Z,99067.23
2023-03-07T02:39:06.946Z,99065.90
2023-03-07T02:42:25.026Z,99058.74
2023-03-07T02:45:44.304Z,99048.21
2023-03-07T02:48:54.293Z,99038.41
2023-03-07T02:52:10.720Z,99030.63
2023-03-07T02:55:20.968Z,99017.70
2023-03-07T02:58:46.596Z,99011.00
2023-03-07T03:01:57.969Z,99008.74
2023-03-07T03:05:14.802Z,99007.73
2023-03-07T03:08:30.918Z,98998.33
2023-03-07T03:11:42.459Z,98994.75
2023-03-07T03:15:09.638Z,98994.85
2023-03-07T03:18:18.480Z,98990.05
2023-03-07T03:21:38.586Z,98982.03
2023-03-07T03:24:54.194Z,98974.98
2023-03-07T03:28:10.674Z,98972.33
2023-03-07T03:31:24.838Z,98969.70
2023-03-07T03:34:40.708Z,98966.65
2023-03-07T03:38:06.577Z,98969.37
2023-03-07T03:41:17.651Z,98965.98
2023-03-07T03:44:23.995Z,98966.92
2023-03-07T03:47:34.921Z,98962.60
2023-03-07T03:50:49.212Z,98958.15
2023-03-07T03:53:58.778Z,98956.25
2023-03-07T03:57:10.827Z,98948.16
2023-03-07T04:00:24.856Z,98943.46
2023-03-07T04:03:34.037Z,98939.84
2023-03-07T04:06:39.582Z,98935.64
2023-03-07T04:09:56.797Z,98926.70
2023-03-07T04:13:11.080Z,98921.66
2023-03-07T04:16:19.496Z,98914.90
2023-03-07T04:19:29.462Z,98913.70
2023-03-07T04:22:37.644Z,98903.67
2023-03-07T04:26:04.712Z,98895.59
2023-03-07T04:29:10.852Z,98884.31
2023-03-07T04:32:30.207Z,98882.17
2023-03-07T04:35:54.562Z,98879.04
2023-03-07T04:39:00.171Z,98873.48
2023-03-07T04:42:10.674Z,98874.66
2023-03-07T04:45:21.635Z,98871.20
2023-03-07T04:48:38.861Z,98863.42
2023-03-07T04:51:51.833Z,98864.27
2023-03-07T04:55:17.610Z,98855.63
2023-03-07T04:58:27.171Z,98854.67
2023-03-07T05:01:36.200Z,98844.79
2023-03-07T05:04:44.869Z,98839.59
2023-03-07T05:07:56.166Z,98836.40
2023-03-07T05:11:11.691Z,98834.38
2023-03-07T05:14:20.954Z,98830.60
2023-03-07T05:17:37.792Z,98828.55
2023-03-07T05:20:55.027Z,98823.13
2023-03-07T05:24:11.986Z,98815.64
2023-03-07T05:27:28.675Z,98810.05
2023-03-07T05:30:48.648Z,98804.16
2023-03-07T05:34:16.051Z,98796.92
2023-03-07T05:37:29.081Z,98788.71
2023-03-07T05:40:41.062Z,98791.92
2023-03-07T05:43:48.317Z,98783.70
2023-03-07T05:46:59.027Z,98775.21
2023-03-07T05:50:11.957Z,98767.27
2023-03-07T05:53:26.174Z,98765.39
2023-03-07T05:56:40.477Z,98758.14
2023-03-07T05:59:49.313Z,98753.98
2023-03-07T06:02:58.059Z,98748.32
2023-03-07T06:06:12.276Z,98744.61
2023-03-07T06:09:29.031Z,98739.97
2023-03-07T06:12:54.921Z,98743.18
2023-03-07T06:16:11.574Z,98736.06
2023-03-07T06:19:18.251Z,98728.73
2023-03-07T06:22:27.848Z,98725.81
2023-03-07T06:25:37.475Z,98726.74
2023-03-07T06:28:43.534Z,98722.71
2023-03-07T06:31:56.926Z,98722.60
2023-03-07T06:35:14.853Z,98720.67
2023-03-07T06:38:24.017Z,98713.26
2023-03-07T06:41:30.187Z,98707.64
2023-03-07T06:44:36.896Z,98702.09
2023-03-07T06:47:53.046Z,98695.73
2023-03-07T06:51:09.562Z,98685.00
2023-03-07T06:54:19.171Z,98675.17
2023-03-07T06:57:44.834Z,98665.90
2023-03-07T07:00:53.436Z,98663.83
2023-03-07T07:04:08.825Z,98661.45
2023-03-07T07:07:34.846Z,98655.20
2023-03-07T07:10:40.816Z,98648.32
2023-03-07T07:13:57.448Z,98647.83
2023-03-07T07:17:16.729Z,98646.10
2023-03-07T07:20:42.378Z,98642.67
2023-03-07T07:23:58.348Z,98636.30
2023-03-07T07:27:10.312Z,98631.21
2023-03-07T07:30:25.935Z,98629.27
2023-03-07T07:33:34.630Z,98629.30
2023-03-07T07:36:54.181Z,98623.02
2023-03-07T07:40:11.402Z,98617.95
2023-03-07T07:43:37.159Z,98613.54
2023-03-07T07:47:06.223Z,98609.02
2023-03-07T07:50:22.566Z,98608.42
2023-03-07T07:53:48.295Z,98600.77
2023-03-07T07:57:06.672Z,98595.66
2023-03-07T08:00:32.679Z,98588.69
2023-03-07T08:03:49.708Z,98581.05
2023-03-07T08:06:55.119Z,98575.18
2023-03-07T08:10:03.027Z,98572.41
2023-03-07T08:13:09.156Z,98569.52
2023-03-07T08:16:17.754Z,98562.48
2023-03-07T08:19:32.912Z,98549.98
2023-03-07T08:22:41.270Z,98547.55
2023-03-07T08:25:46.782Z,98547.46
2023-03-07T08:29:13.045Z,98542.71
2023-03-07T08:32:38.789Z,98539.58
2023-03-07T08:35:47.134Z,98535.60
2023-03-07T08:38:54.123Z,98534.08
2023-03-07T08:42:00.893Z,98527.88
2023-03-07T08:45:09.866Z,98533.05
2023-03-07T08:48:15.640Z,98533.27
2023-03-07T08:51:21.212Z,98530.98
2023-03-07T08:54:26.906Z,98531.98
2023-03-07T08:57:33.311Z,98520.06
2023-03-07T09:00:47.759Z,98515.20
2023-03-07T09:03:53.717Z,98516.73
2023-03-07T09:07:01.514Z,98511.23
2023-03-07T09:10:11.849Z,98519.48
2023-03-07T09:13:18.569Z,98518.70
2023-03-07T09:16:24.393Z,98517.24
2023-03-07T09:19:39.248Z,98516.25
2023-03-07T09:22:45.513Z,98516.60
2023-03-07T09:25:51.032Z,98519.64
2023-03-07T09:28:58.794Z,98524.69
2023-03-07T09:32:04.996Z,98520.84
2023-03-07T09:35:11.076Z,98520.50
2023-03-07T09:38:16.778Z,98519.05
2023-03-07T09:41:40.297Z,98516.73
2023-03-07T09:44:58.831Z,98515.83
2023-03-07T09:48:38.559Z,98514.39
2023-03-07T09:51:52.777Z,98516.50
2023-03-07T09:55:22.106Z,98513.69
2023-03-07T09:58:33.104Z,98510.81
2023-03-07T10:01:46.037Z,98498.26
2023-03-07T10:04:58.222Z,98504.87
2023-03-07T10:08:19.474Z,98507.40
2023-03-07T10:11:50.202Z,98512.16
2023-03-07T10:15:12.841Z,98510.59
2023-03-07T10:18:48.226Z,98503.36
2023-03-07T10:22:20.085Z,98500.17
2023-03-07T10:25:48.492Z,98493.45
2023-03-07T10:29:14.047Z,98485.11
2023-03-07T10:32:41.552Z,98482.84
2023-03-07T10:36:14.969Z,98478.53
2023-03-07T10:39:28.520Z,98476.21
2023-03-07T10:42:46.442Z,98470.69
2023-03-07T10:46:24.604Z,98464.02
2023-03-07T10:49:37.964Z,98460.53
2023-03-07T10:52:58.874Z,98452.27
2023-03-07T10:56:11.502Z,98449.59
2023-03-07T10:59:26.051Z,98450.30
2023-03-07T11:02:40.495Z,98452.45
2023-03-07T11:05:48.527Z,98448.45
2023-03-07T11:08:56.153Z,98438.21
2023-03-07T11:12:21.002Z,98439.88
2023-03-07T11:15:43.189Z,98437.67
2023-03-07T11:18:56.522Z,98434.23
2023-03-07T11:22:28.555Z,98429.36
2023-03-07T11:25:42.119Z,98427.06
2023-03-07T11:28:47.859Z,98427.25
2023-03-07T11:32:05.646Z,98426.98
2023-03-07T11:35:36.170Z,98420.95
2023-03-07T11:38:52.036Z,98412.84
2023-03-07T11:42:14.807Z,98412.23
2023-03-07T11:45:32.245Z,98409.88
2023-03-07T11:49:04.543Z,98409.17
2023-03-07T11:52:41.381Z,98409.33
2023-03-07T11:55:51.478Z,98401.77
2023-03-07T11:59:16.393Z,98398.55
2023-03-07T12:02:56.479Z,98398.48
2023-03-07T12:06:19.432Z,98391.52
2023-03-07T12:09:52.443Z,98388.79
2023-03-07T12:13:16.156Z,98379.96
2023-03-07T12:16:29.354Z,98380.04
2023-03-07T12:19:55.073Z,98378.37
2023-03-07T12:23:16.620Z,98367.92
2023-03-07T12:26:25.300Z,98365.60
2023-03-07T12:29:35.637Z,98362.23
2023-03-07T12:32:47.081Z,98356.69
2023-03-07T12:35:55.989Z,98350.23
2023-03-07T12:39:04.725Z,98343.83
2023-03-07T12:42:21.426Z,98344.41
2023-03-07T12:45:37.315Z,98344.30
2023-03-07T12:48:47.783Z,98348.06
2023-03-07T12:51:56.175Z,98345.83
2023-03-07T12:55:08.708Z,98342.38
2023-03-07T12:58:19.667Z,98341.78
2023-03-07T13:01:28.283Z,98336.27
2023-03-07T13:04:35.377Z,98336.59
2023-03-07T13:07:42.581Z,98336.27
2023-03-07T13:10:48.257Z,98331.54
2023-03-07T13:13:55.417Z,98331.42
2023-03-07T13:17:01.105Z,98331.40
2023-03-07T13:20:34.333Z,98328.47
2023-03-07T13:24:12.590Z,98328.67
2023-03-07T13:27:34.537Z,98329.02
2023-03-07T13:31:15.007Z,98320.16
2023-03-07T13:34:44.025Z,98315.91
2023-03-07T13:38:02.673Z,98313.42
2023-03-07T13:41:46.937Z,98307.09
2023-03-07T13:45:42.399Z,98309.66
2023-03-07T13:49:04.042Z,98306.25
2023-03-07T13:52:36.724Z,98299.49
2023-03-07T13:55:47.416Z,98297.05
2023-03-07T13:59:04.116Z,98293.29
2023-03-07T14:02:21.188Z,98291.07
2023-03-07T14:05:37.201Z,98290.80
2023-03-07T14:08:56.181Z,98288.02
2023-03-07T14:12:16.347Z,98283.50
2023-03-07T14:15:33.425Z,98280.95
2023-03-07T14:18:56.530Z,98277.37
2023-03-07T14:22:28.743Z,98268.32
2023-03-07T14:26:15.863Z,98263.61
2023-03-07T14:29:53.586Z,98261.43
2023-03-07T14:33:20.618Z,98255.08
2023-03-07T14:36:49.040Z,98254.02
2023-03-07T14:40:28.126Z,98245.59
2023-03-07T14:43:58.135Z,98243.70
2023-03-07T14:47:37.380Z,98243.61
2023-03-07T14:51:07.812Z,98238.96
2023-03-07T14:54:34.866Z,98230.45
2023-03-07T14:58:00.565Z,98229.96
2023-03-07T15:01:31.757Z,98228.75
2023-03-07T15:04:57.814Z,98225.21
2023-03-07T15:08:26.271Z,98217.31
2023-03-07T15:11:34.050Z,98214.50
2023-03-07T15:14:46.254Z,98208.04
2023-03-07T15:17:53.268Z,98207.48
2023-03-07T15:21:20.758Z,98201.52
2023-03-07T15:24:49.628Z,98194.36
2023-03-07T15:28:19.739Z,98191.02
2023-03-07T15:31:52.821Z,98189.70
2023-03-07T15:35:04.399Z,98186.48
2023-03-07T15:38:15.453Z,98178.19
2023-03-07T15:41:33.873Z,98176.46
2023-03-07T15:44:39.312Z,98179.38
2023-03-07T15:48:09.347Z,98171.30
2023-03-07T15:51:28.058Z,98168.47
2023-03-07T15:54:50.467Z,98164.23
2023-03-07T15:57:57.838Z,98163.64
2023-03-07T16:01:07.983Z,98162.08
2023-03-07T16:04:27.177Z,98164.90
2023-03-07T16:07:53.707Z,98167.48
2023-03-07T16:11:19.412Z,98161.09
2023-03-07T16:14:29.105Z,98161.27
2023-03-07T16:17:46.051Z,98153.64
2023-03-07T16:21:10.188Z,98150.08
2023-03-07T16:24:29.312Z,98150.37
2023-03-07T16:27:56.791Z,98245.46
2023-03-07T16:31:13.240Z,98247.46
2023-03-07T16:34:26.213Z,98256.66
2023-03-07T16:37:43.140Z,98266.48
2023-03-07T16:41:03.780Z,98268.49
2023-03-07T16:44:24.051Z,98267.83
2023-03-07T16:47:43.313Z,98274.85
2023-03-07T16:50:49.113Z,98286.92
2023-03-07T16:54:17.507Z,98290.65
2023-03-07T16:57:49.980Z,98287.09
2023-03-07T17:01:04.117Z,98292.83
2023-03-07T17:04:18.281Z,98297.11
2023-03-07T17:07:33.530Z,98305.66
2023-03-07T17:10:40.249Z,98310.17
2023-03-07T17:14:09.692Z,98316.40
2023-03-07T17:17:29.080Z,98326.23
2023-03-07T17:20:54.562Z,98326.84
2023-03-07T17:24:01.188Z,98330.58
2023-03-07T17:27:09.844Z,98330.90
2023-03-07T17:30:20.959Z,98341.01
2023-03-07T17:33:37.235Z,98343.19
2023-03-07T17:36:54.599Z,98342.73
2023-03-07T17:40:27.892Z,98349.86
2023-03-07T17:43:38.869Z,98353.01
2023-03-07T17:46:50.945Z,98344.64
2023-03-07T17:50:01.942Z,98335.42
2023-03-07T17:53:27.648Z,98319.27
2023-03-07T17:56:42.520Z,98337.73
2023-03-07T18:00:00.742Z,98350.96
2023-03-07T18:03:08.511Z,98358.34
2023-03-07T18:06:25.107Z,98360.30
2023-03-07T18:09:58.804Z,98353.45
2023-03-07T18:13:20.646Z,98353.70
2023-03-07T18:16:29.734Z,98345.00
2023-03-07T18:19:44.807Z,98351.23
2023-03-07T18:23:00.293Z,98355.05
2023-03-07T18:26:20.042Z,98361.90
2023-03-07T18:29:34.445Z,98359.20
2023-03-07T18:32:47.654Z,98363.23
2023-03-07T18:35:53.222Z,98373.11
2023-03-07T18:39:19.044Z,98361.15
2023-03-07T18:42:42.390Z,98371.89
2023-03-07T18:45:48.833Z,98368.16
2023-03-07T18:49:07.559Z,98359.92
2023-03-07T18:52:17.891Z,98368.14
2023-03-07T18:55:44.949Z,98368.23
2023-03-07T18:59:01.765Z,98381.29
2023-03-07T19:02:13.191Z,98395.34
2023-03-07T19:05:22.064Z,98390.80
2023-03-07T19:08:30.295Z,98384.33
2023-03-07T19:11:36.608Z,98385.29
2023-03-07T19:14:42.167Z,98396.90
2023-03-07T19:17:53.336Z,98388.96
2023-03-07T19:21:01.385Z,98391.10
2023-03-07T19:24:12.557Z,98403.63
2023-03-07T19:27:18.226Z,98408.46
2023-03-07T19:30:29.164Z,98408.91
2023-03-07T19:33:42.041Z,98410.16
2023-03-07T19:36:53.259Z,98409.53
2023-03-07T19:40:01.494Z,98410.13
2023-03-07T19:43:11.267Z,98401.38
2023-03-07T19:46:27.391Z,98396.03
2023-03-07T19:49:37.428Z,98398.32
2023-03-07T19:52:59.207Z,98398.85
2023-03-07T19:56:27.238Z,98398.76
2023-03-07T19:59:43.323Z,98393.73
2023-03-07T20:03:06.738Z,98395.50
2023-03-07T20:06:23.456Z,98409.67
2023-03-07T20:09:33.654Z,98407.38
2023-03-07T20:12:44.121Z,98405.15
2023-03-07T20:15:59.149Z,98403.38
2023-03-07T20:19:08.622Z,98406.75
2023-03-07T20:22:24.629Z,98413.09
2023-03-07T20:25:33.186Z,98410.13
2023-03-07T20:28:44.389Z,98410.98
2023-03-07T20:31:53.964Z,98419.39
2023-03-07T20:35:19.452Z,98424.17
2023-03-07T20:38:49.109Z,98428.99
2023-03-07T20:42:15.605Z,98425.38
2023-03-07T20:45:43.602Z,98428.99
2023-03-07T20:49:02.095Z,98431.46
2023-03-07T20:52:28.414Z,98434.98
2023-03-07T20:56:07.334Z,98438.33
2023-03-07T20:59:32.285Z,98437.66
2023-03-07T21:03:05.736Z,98440.18
2023-03-07T21:06:27.209Z,98442.85
2023-03-07T21:09:54.337Z,98449.12
2023-03-07T21:13:12.945Z,98444.09
2023-03-07T21:16:33.926Z,98454.31
2023-03-07T21:20:09.199Z,98456.61
2023-03-07T21:23:41.324Z,98469.58
2023-03-07T21:27:30.086Z,98472.48
2023-03-07T21:31:01.939Z,98476.41
2023-03-07T21:34:30.472Z,98472.75
2023-03-07T21:37:42.515Z,98473.65
2023-03-07T21:40:54.336Z,98476.13
2023-03-07T21:44:06.135Z,98484.98
2023-03-07T21:47:38.042Z,98489.39
2023-03-07T21:51:04.788Z,98490.30
2023-03-07T21:55:01.562Z,98493.66
2023-03-07T21:58:49.953Z,98501.86
2023-03-07T22:02:21.145Z,98502.06
2023-03-07T22:06:00.218Z,98498.11
2023-03-07T22:10:07.268Z,98494.65
2023-03-07T22:13:47.831Z,98501.61
2023-03-07T22:17:17.508Z,98497.58
2023-03-07T22:20:44.380Z,98497.29
2023-03-07T22:24:29.151Z,98495.76
2023-03-07T22:28:34.506Z,98508.12
2023-03-07T22:32:32.080Z,98516.11
2023-03-07T22:36:54.541Z,98519.16
2023-03-07T22:40:20.697Z,98522.42
2023-03-07T22:43:47.529Z,98523.50
2023-03-07T22:46:58.081Z,98529.15
2023-03-07T22:50:07.161Z,98532.72
2023-03-07T22:53:21.752Z,98535.62
2023-03-07T22:56:33.117Z,98533.56
2023-03-07T22:59:40.927Z,98536.08
2023-03-07T23:02:49.603Z,98541.77
2023-03-07T23:06:02.157Z,98534.31
2023-03-07T23:09:12.679Z,98535.83
2023-03-07T23:12:21.303Z,98542.71
2023-03-07T23:15:39.823Z,98544.32
2023-03-07T23:18:56.785Z,98550.05
2023-03-07T23:22:23.005Z,98551.23
2023-03-07T23:25:34.146Z,98549.88
2023-03-07T23:28:43.010Z,98552.52
2023-03-07T23:31:55.978Z,98552.64
2023-03-07T23:35:01.935Z,98558.04
2023-03-07T23:38:18.010Z,98553.05
2023-03-07T23:41:30.795Z,98555.77
2023-03-07T23:44:39.629Z,98562.77
2023-03-07T23:47:58.797Z,98566.73
2023-03-07T23:51:09.119Z,98566.80
2023-03-07T23:54:17.638Z,98571.87
2023-03-07T23:57:26.542Z,98571.99
